Time;durP1;ratioP1;P1;durP2;ratioP2;P2;SDS_P1;SDS_P2;PMS_P1;PMS_P2;Temp;Humidity;BMP_temperature;BMP_pressure;BME280_temperature;BME280_humidity;BME280_pressure;Samples;Min_cycle;Max_cycle;Signal;HPM_P1;HPM_P2
2023/06/15 00:00:17;;;;;;;6.75;3.78;;;;;;;;;;6307238;22;20176;-90
2023/06/15 00:03:22;;;;;;;5.93;4.00;;;;;;;;;;6306814;22;20169;-91
2023/06/15 00:06:28;;;;;;;9.73;4.38;;;;;;;;;;6306696;22;20168;-91
2023/06/15 00:09:33;;;;;;;10.07;4.53;;;;;;;;;;6305718;22;20229;-91
2023/06/15 00:12:40;;;;;;;5.55;4.13;;;;;;;;;;6307473;22;20176;-90
2023/06/15 00:15:46;;;;;;;6.45;4.30;;;;;;;;;;6308930;22;20173;-92
2023/06/15 00:18:57;;;;;;;6.50;3.88;;;;;;;;;;6307448;22;20233;-90
2023/06/15 00:22:02;;;;;;;7.97;4.53;;;;;;;;;;6307900;22;20184;-91
2023/06/15 00:25:08;;;;;;;8.98;4.50;;;;;;;;;;6308317;22;20489;-91
2023/06/15 00:28:15;;;;;;;6.93;4.05;;;;;;;;;;6307761;22;20218;-94
2023/06/15 00:31:22;;;;;;;7.93;4.20;;;;;;;;;;6306194;22;20188;-92
2023/06/15 00:34:27;;;;;;;10.52;5.50;;;;;;;;;;6308170;22;20156;-91
2023/06/15 00:37:34;;;;;;;8.70;4.63;;;;;;;;;;6325046;22;20165;-92
2023/06/15 00:40:40;;;;;;;9.77;4.15;;;;;;;;;;6307188;22;20169;-91
2023/06/15 00:43:46;;;;;;;8.82;4.88;;;;;;;;;;6308121;22;20146;-89
2023/06/15 00:46:52;;;;;;;5.97;3.83;;;;;;;;;;6307844;22;20188;-92
2023/06/15 00:49:58;;;;;;;8.00;4.60;;;;;;;;;;6308055;22;20184;-90
2023/06/15 00:53:05;;;;;;;9.15;4.75;;;;;;;;;;6308108;22;20212;-91
2023/06/15 01:00:26;;;;;;;9.70;4.72;;;;;;;;;;6326238;22;20156;-91
2023/06/15 01:03:33;;;;;;;6.15;4.57;;;;;;;;;;6306795;22;20172;-92
2023/06/15 01:06:41;;;;;;;7.30;4.85;;;;;;;;;;6306816;22;20184;-91
2023/06/15 01:09:48;;;;;;;8.23;5.07;;;;;;;;;;6307581;22;20153;-90
2023/06/15 01:12:57;;;;;;;8.88;4.75;;;;;;;;;;6307840;22;20177;-88
2023/06/15 01:16:05;;;;;;;6.82;4.28;;;;;;;;;;6306775;22;20616;-90
2023/06/15 01:19:16;;;;;;;7.65;4.50;;;;;;;;;;6306273;22;20212;-91
2023/06/15 01:22:24;;;;;;;8.32;4.80;;;;;;;;;;6305963;22;20495;-91
2023/06/15 01:25:33;;;;;;;9.48;4.30;;;;;;;;;;6306986;22;20173;-91
2023/06/15 01:28:41;;;;;;;6.45;4.32;;;;;;;;;;6307416;22;20166;-92
2023/06/15 01:31:47;;;;;;;9.40;4.60;;;;;;;;;;6308265;22;20169;-91
2023/06/15 01:34:52;;;;;;;8.57;4.55;;;;;;;;;;6307266;22;20168;-92
2023/06/15 01:37:58;;;;;;;8.68;4.75;;;;;;;;;;6307727;22;20248;-91
2023/06/15 01:41:04;;;;;;;10.60;5.43;;;;;;;;;;6307456;22;20144;-92
2023/06/15 01:44:12;;;;;;;6.57;4.68;;;;;;;;;;6308430;22;20192;-90
2023/06/15 01:47:18;;;;;;;9.93;4.60;;;;;;;;;;6309304;22;20222;-90
2023/06/15 01:50:25;;;;;;;6.78;4.40;;;;;;;;;;6310795;22;20223;-90
2023/06/15 01:53:32;;;;;;;8.98;4.72;;;;;;;;;;6310084;22;20208;-92
2023/06/15 02:20:25;;;;;;;10.85;5.35;;;;;;;;;;6277565;22;20217;-92
2023/06/15 02:23:32;;;;;;;9.27;4.82;;;;;;;;;;6307596;22;20280;-92
2023/06/15 02:26:38;;;;;;;6.90;4.68;;;;;;;;;;6307909;22;20215;-90
2023/06/15 02:29:43;;;;;;;11.43;5.28;;;;;;;;;;6308977;22;20175;-90
2023/06/15 02:32:52;;;;;;;10.88;4.97;;;;;;;;;;6308482;22;20192;-90
2023/06/15 02:36:00;;;;;;;10.35;5.40;;;;;;;;;;6307116;22;20204;-90
2023/06/15 02:39:05;;;;;;;8.55;4.75;;;;;;;;;;6308236;22;20172;-92
2023/06/15 02:42:11;;;;;;;8.50;5.00;;;;;;;;;;6307076;22;20490;-90
2023/06/15 02:45:17;;;;;;;11.55;5.30;;;;;;;;;;6307727;22;20190;-92
2023/06/15 02:48:22;;;;;;;9.48;5.30;;;;;;;;;;6307330;22;20153;-91
2023/06/15 02:51:32;;;;;;;8.27;5.15;;;;;;;;;;6308869;22;20208;-91
2023/06/15 02:54:39;;;;;;;10.90;5.82;;;;;;;;;;6308852;22;20201;-92
2023/06/15 02:57:45;;;;;;;8.40;5.10;;;;;;;;;;6306742;22;20165;-90
2023/06/15 03:01:23;;;;;;;9.13;5.68;;;;;;;;;;6307251;22;20238;-91
2023/06/15 03:04:44;;;;;;;10.30;5.70;;;;;;;;;;6307672;22;20215;-92
2023/06/15 03:07:52;;;;;;;12.52;5.70;;;;;;;;;;6306505;22;20160;-92
2023/06/15 03:11:08;;;;;;;11.88;5.93;;;;;;;;;;6304798;22;20166;-89
2023/06/15 03:14:14;;;;;;;10.93;6.03;;;;;;;;;;6307776;22;20245;-92
2023/06/15 03:17:22;;;;;;;10.48;5.70;;;;;;;;;;6307283;22;20160;-92
2023/06/15 03:20:32;;;;;;;11.75;6.15;;;;;;;;;;6306652;22;20188;-91
2023/06/15 03:23:42;;;;;;;11.13;6.05;;;;;;;;;;6306757;22;20166;-92
2023/06/15 03:26:49;;;;;;;11.65;6.35;;;;;;;;;;6306265;22;20223;-90
2023/06/15 03:29:55;;;;;;;11.40;6.82;;;;;;;;;;6306872;22;20153;-91
2023/06/15 03:33:01;;;;;;;12.35;6.50;;;;;;;;;;6308591;22;20223;-92
2023/06/15 03:36:08;;;;;;;10.73;6.40;;;;;;;;;;6308338;22;20189;-90
2023/06/15 03:39:16;;;;;;;11.77;6.35;;;;;;;;;;6308401;22;20612;-91
2023/06/15 03:42:22;;;;;;;11.73;6.47;;;;;;;;;;6307291;22;20149;-91
2023/06/15 03:45:28;;;;;;;10.48;6.63;;;;;;;;;;6307844;22;20173;-91
2023/06/15 03:48:33;;;;;;;10.15;6.05;;;;;;;;;;6307293;22;20186;-91
2023/06/15 03:51:39;;;;;;;13.52;6.38;;;;;;;;;;6308006;22;20169;-90
2023/06/15 03:54:46;;;;;;;13.82;6.80;;;;;;;;;;6307573;22;20165;-90
2023/06/15 03:58:10;;;;;;;13.75;5.90;;;;;;;;;;6306242;22;20145;-92
2023/06/15 04:05:02;;;;;;;11.82;6.65;;;;;;;;;;6307421;22;20165;-92
2023/06/15 04:08:12;;;;;;;12.02;6.43;;;;;;;;;;6307114;22;20153;-92
2023/06/15 04:11:20;;;;;;;12.02;6.07;;;;;;;;;;6308051;22;20153;-92
2023/06/15 04:14:27;;;;;;;13.95;6.50;;;;;;;;;;6307681;22;20177;-91
2023/06/15 04:17:33;;;;;;;10.70;5.90;;;;;;;;;;6307365;22;20231;-92
2023/06/15 04:20:38;;;;;;;10.23;5.50;;;;;;;;;;6306222;22;20235;-91
2023/06/15 04:23:43;;;;;;;9.00;5.68;;;;;;;;;;6307617;22;20212;-92
2023/06/15 04:26:51;;;;;;;9.98;5.55;;;;;;;;;;6308952;22;20157;-90
2023/06/15 04:29:58;;;;;;;9.65;5.15;;;;;;;;;;6306225;22;20241;-91
2023/06/15 04:33:04;;;;;;;13.60;5.50;;;;;;;;;;6307182;22;20192;-92
2023/06/15 04:36:13;;;;;;;11.55;5.50;;;;;;;;;;6308481;22;20234;-90
2023/06/15 04:39:26;;;;;;;14.30;5.35;;;;;;;;;;6307353;22;20209;-91
2023/06/15 04:42:40;;;;;;;15.02;5.47;;;;;;;;;;6307213;22;20228;-92
2023/06/15 04:45:47;;;;;;;9.15;5.18;;;;;;;;;;6307847;22;20153;-92
2023/06/15 04:48:58;;;;;;;8.95;5.43;;;;;;;;;;6306707;22;20498;-90
2023/06/15 04:52:03;;;;;;;9.77;4.93;;;;;;;;;;6307506;22;20165;-90
2023/06/15 04:55:11;;;;;;;10.10;6.00;;;;;;;;;;6308218;22;20173;-91
2023/06/15 04:58:23;;;;;;;9.95;5.45;;;;;;;;;;6307588;22;20216;-91
2023/06/15 05:01:29;;;;;;;9.88;5.45;;;;;;;;;;6308090;22;20176;-90
2023/06/15 05:04:35;;;;;;;8.68;5.00;;;;;;;;;;6308602;22;20248;-91
2023/06/15 05:07:41;;;;;;;10.35;5.40;;;;;;;;;;6308784;22;20227;-91
2023/06/15 05:10:47;;;;;;;11.23;5.70;;;;;;;;;;6307977;22;20161;-91
2023/06/15 05:13:58;;;;;;;9.93;5.25;;;;;;;;;;6308689;22;20193;-91
2023/06/15 05:17:05;;;;;;;11.25;5.28;;;;;;;;;;6306485;22;20227;-90
2023/06/15 05:20:17;;;;;;;9.13;5.22;;;;;;;;;;6306804;22;20252;-91
2023/06/15 05:23:23;;;;;;;22.15;9.88;;;;;;;;;;6305271;22;20208;-90
2023/06/15 05:26:28;;;;;;;11.13;5.30;;;;;;;;;;6306244;22;20682;-91
2023/06/15 05:30:00;;;;;;;9.20;5.25;;;;;;;;;;6310291;22;20164;-92
2023/06/15 05:33:17;;;;;;;12.18;5.80;;;;;;;;;;6307495;22;20177;-91
2023/06/15 05:36:25;;;;;;;9.13;5.35;;;;;;;;;;6305978;22;20173;-92
2023/06/15 05:39:31;;;;;;;9.82;5.63;;;;;;;;;;6305949;22;20188;-92
2023/06/15 05:42:36;;;;;;;10.27;5.68;;;;;;;;;;6305183;22;20179;-92
2023/06/15 05:45:43;;;;;;;11.38;6.15;;;;;;;;;;6307869;22;20480;-92
2023/06/15 05:48:50;;;;;;;11.13;5.47;;;;;;;;;;6304418;22;20164;-93
2023/06/15 05:52:05;;;;;;;8.73;5.25;;;;;;;;;;6307900;22;20243;-89
2023/06/15 05:55:18;;;;;;;11.48;5.75;;;;;;;;;;6312630;22;20220;-91
2023/06/15 05:58:55;;;;;;;15.57;5.75;;;;;;;;;;6305413;22;20233;-92
2023/06/15 06:02:05;;;;;;;10.10;5.07;;;;;;;;;;6307618;22;20149;-92
2023/06/15 06:05:15;;;;;;;12.93;6.03;;;;;;;;;;6306240;22;20156;-93
2023/06/15 06:08:21;;;;;;;10.02;5.63;;;;;;;;;;6307088;22;20173;-92
2023/06/15 06:11:28;;;;;;;11.10;5.97;;;;;;;;;;6304992;22;20165;-92
2023/06/15 06:14:38;;;;;;;11.57;5.90;;;;;;;;;;6303949;22;20275;-92
2023/06/15 06:22:01;;;;;;;12.43;5.93;;;;;;;;;;6326285;22;20181;-90
2023/06/15 06:25:09;;;;;;;21.40;6.72;;;;;;;;;;6304064;22;20722;-91
2023/06/15 06:28:14;;;;;;;10.75;5.47;;;;;;;;;;6305559;22;20188;-92
2023/06/15 06:31:19;;;;;;;12.13;5.50;;;;;;;;;;6304143;22;20553;-93
2023/06/15 06:34:25;;;;;;;10.57;5.32;;;;;;;;;;6304753;22;20201;-90
2023/06/15 08:01:39;;;;;;;5.47;3.70;;;;;;;;;;6236348;22;20209;-92
2023/06/15 08:04:45;;;;;;;7.05;3.75;;;;;;;;;;6307751;22;20229;-93
2023/06/15 08:07:50;;;;;;;10.55;4.10;;;;;;;;;;6307939;22;20211;-91
2023/06/15 08:10:55;;;;;;;7.40;4.18;;;;;;;;;;6306656;22;20165;-94
2023/06/15 08:14:01;;;;;;;5.30;3.80;;;;;;;;;;6307545;22;20196;-91
2023/06/15 08:17:08;;;;;;;5.43;3.97;;;;;;;;;;6306759;22;20162;-91
2023/06/15 08:20:28;;;;;;;7.95;4.35;;;;;;;;;;6306487;22;20157;-91
2023/06/15 08:23:34;;;;;;;7.45;4.20;;;;;;;;;;6308732;22;20226;-91
2023/06/15 08:26:40;;;;;;;6.35;3.97;;;;;;;;;;6307902;22;20309;-92
2023/06/15 08:29:48;;;;;;;6.95;4.45;;;;;;;;;;6308198;22;20160;-93
2023/06/15 08:32:54;;;;;;;10.70;3.58;;;;;;;;;;6307781;22;20169;-93
2023/06/15 08:36:00;;;;;;;6.05;3.85;;;;;;;;;;6309562;22;20172;-92
2023/06/15 19:33:36;;;;;;;5.38;3.55;;;;;;;;;;6246933;22;20206;-88
2023/06/15 19:36:42;;;;;;;8.75;3.78;;;;;;;;;;6305070;22;20156;-88
2023/06/15 19:39:47;;;;;;;9.73;5.35;;;;;;;;;;6305030;22;20249;-90
2023/06/15 19:42:53;;;;;;;7.82;3.78;;;;;;;;;;6302971;22;20496;-87
2023/06/15 19:46:02;;;;;;;7.97;4.15;;;;;;;;;;6305060;22;20169;-89
2023/06/15 19:49:09;;;;;;;6.68;3.85;;;;;;;;;;6303177;22;20223;-89
2023/06/15 19:52:14;;;;;;;11.48;4.00;;;;;;;;;;6302247;22;20173;-90
2023/06/15 19:55:20;;;;;;;6.75;3.97;;;;;;;;;;6303144;22;20173;-89
2023/06/15 19:58:41;;;;;;;11.45;3.80;;;;;;;;;;6301682;22;20621;-88
2023/06/15 20:01:46;;;;;;;5.75;3.70;;;;;;;;;;6304201;22;20279;-88
2023/06/15 20:04:54;;;;;;;7.65;4.53;;;;;;;;;;6302825;22;20508;-87
2023/06/15 20:07:59;;;;;;;7.47;5.15;;;;;;;;;;6302250;22;20173;-87
2023/06/15 20:11:05;;;;;;;10.68;5.40;;;;;;;;;;6303711;22;20153;-87
2023/06/15 20:14:10;;;;;;;16.15;5.30;;;;;;;;;;6303727;22;20192;-89
2023/06/15 20:17:15;;;;;;;10.02;4.38;;;;;;;;;;6304393;22;20216;-89
2023/06/15 20:24:14;;;;;;;7.68;4.55;;;;;;;;;;6301436;22;20156;-88
2023/06/15 20:27:19;;;;;;;7.38;4.40;;;;;;;;;;6302262;22;20152;-87
2023/06/15 20:30:25;;;;;;;8.65;3.95;;;;;;;;;;6301587;22;20207;-90
2023/06/15 20:33:30;;;;;;;6.85;4.03;;;;;;;;;;6299436;22;20193;-89
2023/06/15 20:36:42;;;;;;;7.28;4.15;;;;;;;;;;6300521;22;20595;-88
2023/06/15 20:39:48;;;;;;;6.97;4.22;;;;;;;;;;6302103;22;20192;-88
2023/06/15 20:42:54;;;;;;;7.55;4.47;;;;;;;;;;6301399;22;20168;-89
2023/06/15 20:45:59;;;;;;;7.00;4.20;;;;;;;;;;6303023;22;20169;-89
2023/06/15 20:49:04;;;;;;;8.60;4.38;;;;;;;;;;6299500;22;20487;-88
2023/06/15 20:52:10;;;;;;;6.50;4.10;;;;;;;;;;6304272;22;20157;-88
2023/06/15 20:55:18;;;;;;;7.47;4.03;;;;;;;;;;6306729;22;20224;-89
2023/06/15 20:58:23;;;;;;;6.07;4.28;;;;;;;;;;6306185;22;20210;-89
2023/06/15 21:01:28;;;;;;;6.85;4.18;;;;;;;;;;6305787;22;20280;-89
2023/06/15 21:04:34;;;;;;;8.73;5.18;;;;;;;;;;6305318;22;20168;-89
2023/06/15 21:07:40;;;;;;;8.68;5.03;;;;;;;;;;6304031;22;20185;-89
2023/06/15 21:10:48;;;;;;;7.50;4.40;;;;;;;;;;6306658;22;20201;-89
2023/06/15 21:13:53;;;;;;;6.78;4.20;;;;;;;;;;6307865;22;20639;-85
2023/06/15 21:16:59;;;;;;;8.27;4.60;;;;;;;;;;6308953;22;20168;-87
2023/06/15 21:20:05;;;;;;;9.93;5.00;;;;;;;;;;6306165;22;20230;-88
2023/06/15 21:23:10;;;;;;;6.70;4.35;;;;;;;;;;6307515;22;20498;-88
2023/06/15 21:26:17;;;;;;;8.25;4.40;;;;;;;;;;6308515;22;20169;-89
2023/06/15 21:29:22;;;;;;;8.95;4.72;;;;;;;;;;6323786;22;20632;-88
2023/06/15 21:32:27;;;;;;;9.52;4.90;;;;;;;;;;6304913;22;20222;-89
2023/06/15 21:35:33;;;;;;;13.48;4.72;;;;;;;;;;6304291;22;20196;-89
2023/06/15 21:38:38;;;;;;;8.90;4.85;;;;;;;;;;6302158;22;20165;-88
2023/06/15 21:41:45;;;;;;;7.70;4.90;;;;;;;;;;6302772;22;20249;-88
2023/06/15 21:44:50;;;;;;;6.78;4.50;;;;;;;;;;6302142;22;20165;-88
2023/06/15 21:47:55;;;;;;;9.88;4.75;;;;;;;;;;6301589;22;20165;-88
2023/06/15 21:51:00;;;;;;;6.85;4.25;;;;;;;;;;6301931;22;20292;-91
2023/06/15 21:54:05;;;;;;;6.90;4.45;;;;;;;;;;6301671;22;20227;-90
2023/06/15 21:57:15;;;;;;;8.68;4.60;;;;;;;;;;6301732;22;20205;-89
2023/06/15 22:00:21;;;;;;;7.30;4.75;;;;;;;;;;6300095;22;20223;-88
2023/06/15 22:04:04;;;;;;;11.65;5.20;;;;;;;;;;6300302;22;20173;-89
2023/06/15 22:07:09;;;;;;;8.10;5.15;;;;;;;;;;6300948;22;20280;-88
2023/06/15 22:10:14;;;;;;;8.23;4.80;;;;;;;;;;6302643;22;20160;-88
2023/06/15 22:13:21;;;;;;;12.63;5.28;;;;;;;;;;6302026;22;20165;-89
2023/06/15 22:16:27;;;;;;;10.23;4.75;;;;;;;;;;6302797;22;20181;-90
2023/06/15 22:19:34;;;;;;;7.85;4.55;;;;;;;;;;6302795;22;20204;-89
2023/06/15 22:22:39;;;;;;;7.82;4.72;;;;;;;;;;6304579;22;20169;-90
2023/06/15 22:25:45;;;;;;;7.63;5.00;;;;;;;;;;6317985;22;20157;-88
2023/06/15 22:28:51;;;;;;;9.32;4.75;;;;;;;;;;6305394;22;20204;-91
2023/06/15 22:31:56;;;;;;;7.38;4.65;;;;;;;;;;6305436;22;20149;-90
2023/06/15 22:35:02;;;;;;;8.80;5.30;;;;;;;;;;6307334;22;20208;-92
2023/06/15 22:38:07;;;;;;;8.82;4.80;;;;;;;;;;6305900;22;20243;-91
2023/06/15 22:41:12;;;;;;;6.55;4.40;;;;;;;;;;6305149;22;20161;-91
2023/06/15 22:44:20;;;;;;;7.00;4.43;;;;;;;;;;6303189;22;20169;-92
2023/06/15 22:47:28;;;;;;;9.27;4.82;;;;;;;;;;6300313;22;20149;-91
2023/06/15 22:50:33;;;;;;;7.80;4.43;;;;;;;;;;6303639;22;20242;-90
2023/06/15 22:53:40;;;;;;;8.32;4.53;;;;;;;;;;6304771;22;20239;-90
2023/06/15 22:56:45;;;;;;;7.13;4.57;;;;;;;;;;6302830;22;20196;-89
2023/06/15 22:59:52;;;;;;;8.35;4.80;;;;;;;;;;6304881;22;20168;-91
2023/06/15 23:02:57;;;;;;;8.32;4.18;;;;;;;;;;6304842;22;20215;-91
2023/06/15 23:06:02;;;;;;;8.15;4.80;;;;;;;;;;6305706;22;20153;-91
2023/06/15 23:09:08;;;;;;;9.50;5.15;;;;;;;;;;6304497;22;20485;-91
2023/06/15 23:12:13;;;;;;;8.27;4.93;;;;;;;;;;6305190;22;20164;-91
2023/06/15 23:15:20;;;;;;;13.25;5.72;;;;;;;;;;6304187;22;20223;-91
2023/06/15 23:18:26;;;;;;;9.13;5.05;;;;;;;;;;6304471;22;20173;-90
2023/06/15 23:21:34;;;;;;;7.25;4.95;;;;;;;;;;6304010;22;20169;-90
2023/06/15 23:24:39;;;;;;;8.73;4.93;;;;;;;;;;6304562;22;20161;-91
2023/06/15 23:27:47;;;;;;;7.97;4.80;;;;;;;;;;6302778;22;20166;-91
2023/06/15 23:30:53;;;;;;;7.50;4.72;;;;;;;;;;6303327;22;20173;-91
2023/06/15 23:33:58;;;;;;;10.27;5.25;;;;;;;;;;6303122;22;20244;-91
2023/06/15 23:37:03;;;;;;;8.45;5.15;;;;;;;;;;6302584;22;20169;-90
2023/06/15 23:40:09;;;;;;;7.65;4.93;;;;;;;;;;6302653;22;20161;-89
2023/06/15 23:43:15;;;;;;;10.02;6.07;;;;;;;;;;6305094;22;20161;-90
2023/06/15 23:46:21;;;;;;;9.30;5.10;;;;;;;;;;6304342;22;20173;-91
2023/06/15 23:49:26;;;;;;;10.63;5.45;;;;;;;;;;6304589;22;20169;-92
2023/06/15 23:52:32;;;;;;;9.13;5.32;;;;;;;;;;6302956;22;20161;-90
2023/06/15 23:55:38;;;;;;;12.30;5.93;;;;;;;;;;6302831;22;20213;-90
2023/06/15 23:58:43;;;;;;;8.77;5.55;;;;;;;;;;6305227;22;20171;-90
